createdAt,value
2018-05-11T00:01:58.437Z,98.60
2018-05-11T00:07:02.171Z,99.20
2018-05-11T00:12:09.708Z,99.20
2018-05-11T00:17:13.070Z,99.30
2018-05-11T00:22:16.381Z,99.50
2018-05-11T00:27:19.736Z,99.60
2018-05-11T00:32:23.190Z,99.10
2018-05-11T00:37:26.590Z,99.20
2018-05-11T00:42:29.903Z,99.40
2018-05-11T00:47:35.484Z,99.60
2018-05-11T00:52:50.041Z,99.60
2018-05-11T00:57:53.449Z,99.60
2018-05-11T01:02:57.265Z,99.60
2018-05-11T01:08:01.706Z,99.60
2018-05-11T01:13:05.366Z,99.60
2018-05-11T01:18:08.592Z,99.60
2018-05-11T01:23:12.037Z,99.60
2018-05-11T01:28:15.652Z,99.60
2018-05-11T01:33:20.438Z,99.60
2018-05-11T01:38:23.676Z,99.60
2018-05-11T01:43:27.118Z,99.60
2018-05-11T01:53:45.520Z,99.60
2018-05-11T01:58:48.912Z,99.60
2018-05-11T02:03:53.563Z,99.60
2018-05-11T02:08:57.191Z,99.60
2018-05-11T02:14:00.488Z,99.60
2018-05-11T02:19:03.714Z,99.60
2018-05-11T02:24:07.210Z,99.60
2018-05-11T02:29:10.414Z,99.60
2018-05-11T02:34:13.847Z,99.60
2018-05-11T02:39:17.160Z,99.60
2018-05-11T02:44:20.522Z,99.60
2018-05-11T02:49:24.423Z,99.60
2018-05-11T02:54:27.698Z,99.60
2018-05-11T02:59:30.933Z,99.60
2018-05-11T03:04:35.194Z,99.60
2018-05-11T03:09:38.816Z,99.60
2018-05-11T03:14:54.126Z,99.60
2018-05-11T03:19:57.393Z,99.60
2018-05-11T03:25:01.241Z,99.60
2018-05-11T03:30:04.519Z,99.60
2018-05-11T03:35:07.834Z,99.60
2018-05-11T03:40:11.440Z,99.60
2018-05-11T03:45:14.738Z,99.60
2018-05-11T03:50:17.985Z,99.60
2018-05-11T03:55:21.463Z,99.60
2018-05-11T04:00:24.774Z,99.60
2018-05-11T04:05:39.831Z,99.60
2018-05-11T04:10:43.995Z,99.60
2018-05-11T04:15:47.601Z,99.60
2018-05-11T04:20:51.336Z,99.60
2018-05-11T04:25:54.555Z,99.60
2018-05-11T04:30:57.857Z,99.60
2018-05-11T04:36:01.148Z,99.60
2018-05-11T04:41:04.789Z,99.60
2018-05-11T04:46:08.016Z,99.60
2018-05-11T04:51:11.254Z,99.60
2018-05-11T04:56:14.511Z,99.60
2018-05-11T05:01:17.724Z,99.60
2018-05-11T05:06:20.939Z,99.10
2018-05-11T05:11:24.170Z,99.00
2018-05-11T05:16:27.383Z,98.90
2018-05-11T05:21:30.621Z,98.90
2018-05-11T05:26:33.844Z,98.60
2018-05-11T05:31:37.105Z,98.00
2018-05-11T05:36:40.359Z,97.70
2018-05-11T05:41:43.596Z,97.00
2018-05-11T05:46:46.822Z,96.90
2018-05-11T05:51:50.143Z,95.30
2018-05-11T05:56:53.771Z,95.40
2018-05-11T06:01:57.050Z,95.40
2018-05-11T06:07:00.344Z,94.20
2018-05-11T06:12:03.622Z,93.90
2018-05-11T06:17:06.883Z,93.50
2018-05-11T06:22:10.531Z,91.90
2018-05-11T06:27:13.796Z,91.90
2018-05-11T06:32:17.396Z,91.90
2018-05-11T06:37:21.115Z,90.40
2018-05-11T06:42:24.352Z,90.40
2018-05-11T06:47:28.049Z,89.20
2018-05-11T06:52:31.299Z,89.20
2018-05-11T06:57:34.535Z,89.10
2018-05-11T07:02:37.869Z,88.90
2018-05-11T07:07:41.140Z,87.10
2018-05-11T07:12:44.423Z,86.50
2018-05-11T07:17:47.669Z,85.80
2018-05-11T07:22:50.951Z,85.60
2018-05-11T07:27:54.184Z,85.60
2018-05-11T07:32:57.416Z,83.50
2018-05-11T07:38:01.826Z,82.80
2018-05-11T07:43:05.145Z,82.80
2018-05-11T07:48:08.457Z,82.30
2018-05-11T07:53:11.678Z,82.10
2018-05-11T07:58:15.305Z,82.30
2018-05-11T08:03:18.520Z,82.30
2018-05-11T08:08:21.891Z,81.00
2018-05-11T08:13:25.116Z,81.30
2018-05-11T08:18:28.743Z,80.10
2018-05-11T08:23:31.970Z,80.10
2018-05-11T08:28:35.328Z,79.90
2018-05-11T08:33:38.571Z,79.50
2018-05-11T08:38:41.813Z,78.60
2018-05-11T08:43:45.075Z,78.00
2018-05-11T08:48:48.372Z,77.40
2018-05-11T08:53:51.987Z,76.70
2018-05-11T08:58:55.689Z,77.10
2018-05-11T09:03:59.441Z,76.90
2018-05-11T09:09:02.668Z,76.90
2018-05-11T09:14:05.955Z,77.10
2018-05-11T09:19:09.192Z,75.70
2018-05-11T09:24:12.440Z,75.40
2018-05-11T09:29:16.065Z,75.70
2018-05-11T09:34:19.685Z,74.70
2018-05-11T09:39:22.939Z,74.70
2018-05-11T09:44:26.196Z,74.10
2018-05-11T09:49:29.519Z,72.70
2018-05-11T09:54:32.693Z,73.60
2018-05-11T09:59:36.335Z,74.40
2018-05-11T10:04:39.622Z,74.40
2018-05-11T10:09:43.256Z,73.50
2018-05-11T10:14:46.505Z,73.50
2018-05-11T10:19:49.732Z,74.00
2018-05-11T10:24:52.963Z,72.90
2018-05-11T10:29:56.672Z,72.20
2018-05-11T10:35:00.294Z,72.10
2018-05-11T10:40:03.943Z,72.10
2018-05-11T10:45:07.167Z,72.10
2018-05-11T10:50:10.381Z,70.30
2018-05-11T10:55:13.744Z,70.80
2018-05-11T11:00:16.970Z,70.80
2018-05-11T11:05:20.190Z,71.60
2018-05-11T11:10:23.398Z,69.60
2018-05-11T11:15:26.620Z,71.10
2018-05-11T11:20:29.854Z,69.80
2018-05-11T11:25:33.487Z,68.00
2018-05-11T11:30:36.715Z,68.00
2018-05-11T11:35:40.141Z,69.60
2018-05-11T11:40:43.487Z,67.90
2018-05-11T11:45:47.137Z,66.10
2018-05-11T11:50:50.376Z,66.10
2018-05-11T11:55:53.705Z,63.70
2018-05-11T12:00:56.921Z,64.50
2018-05-11T12:06:00.645Z,60.70
2018-05-11T12:11:04.286Z,59.70
2018-05-11T12:16:07.511Z,59.70
2018-05-11T12:21:10.734Z,57.70
2018-05-11T12:26:14.946Z,57.70
2018-05-11T12:31:18.163Z,57.80
2018-05-11T12:36:21.506Z,56.90
2018-05-11T12:41:25.217Z,57.70
2018-05-11T12:46:28.931Z,56.20
2018-05-11T12:51:32.164Z,56.20
2018-05-11T12:56:35.413Z,56.20
2018-05-11T13:01:39.064Z,57.50
2018-05-11T13:06:42.782Z,56.10
2018-05-11T13:11:46.512Z,55.60
2018-05-11T13:16:50.150Z,55.80
2018-05-11T13:21:53.375Z,55.80
2018-05-11T13:26:56.602Z,56.70
2018-05-11T13:32:00.437Z,56.90
2018-05-11T13:37:03.693Z,55.50
2018-05-11T13:42:07.002Z,55.30
2018-05-11T13:47:10.236Z,57.40
2018-05-11T13:52:13.453Z,62.70
2018-05-11T13:57:16.682Z,63.60
2018-05-11T14:02:20.378Z,62.90
2018-05-11T14:07:23.603Z,62.90
2018-05-11T14:12:27.499Z,64.10
2018-05-11T14:17:30.749Z,64.10
2018-05-11T14:22:33.976Z,62.30
2018-05-11T14:27:37.441Z,61.00
2018-05-11T14:32:41.080Z,56.30
2018-05-11T14:37:44.553Z,56.30
2018-05-11T14:42:47.771Z,53.40
2018-05-11T14:47:51.104Z,52.50
2018-05-11T14:52:54.326Z,52.20
2018-05-11T14:57:57.604Z,53.50
2018-05-11T15:03:01.309Z,51.60
2018-05-11T15:08:06.465Z,53.40
2018-05-11T15:13:10.297Z,53.80
2018-05-11T15:18:13.922Z,52.80
2018-05-11T15:23:17.157Z,52.80
2018-05-11T15:28:20.390Z,51.40
2018-05-11T15:33:23.736Z,52.80
2018-05-11T15:38:27.355Z,51.20
2018-05-11T15:43:30.622Z,51.10
2018-05-11T15:48:34.433Z,52.50
2018-05-11T15:53:37.659Z,52.90
2018-05-11T15:58:40.968Z,52.50
2018-05-11T16:03:44.378Z,53.20
2018-05-11T16:08:48.017Z,53.10
2018-05-11T16:13:51.299Z,53.10
2018-05-11T16:18:54.536Z,53.60
2018-05-11T16:23:57.790Z,52.60
2018-05-11T16:29:01.015Z,52.20
2018-05-11T16:34:04.389Z,52.10
2018-05-11T16:39:07.754Z,51.70
2018-05-11T16:44:11.371Z,51.30
2018-05-11T16:49:14.593Z,51.30
2018-05-11T16:54:17.831Z,50.90
2018-05-11T16:59:21.180Z,52.00
2018-05-11T17:04:24.445Z,52.60
2018-05-11T17:09:27.784Z,52.10
2018-05-11T17:14:31.597Z,52.10
2018-05-11T17:19:35.312Z,52.50
2018-05-11T17:24:38.951Z,53.70
2018-05-11T17:29:42.188Z,53.70
2018-05-11T17:34:45.541Z,58.00
2018-05-11T17:39:48.949Z,62.80
2018-05-11T17:44:52.359Z,66.60
2018-05-11T17:49:55.946Z,67.10
2018-05-11T17:54:59.224Z,67.90
2018-05-11T18:00:02.461Z,67.80
2018-05-11T18:05:05.911Z,69.20
2018-05-11T18:10:09.656Z,71.50
2018-05-11T18:15:13.253Z,71.50
2018-05-11T18:20:16.842Z,72.10
2018-05-11T18:25:20.476Z,72.60
2018-05-11T18:30:24.099Z,74.60
2018-05-11T18:35:27.329Z,74.60
2018-05-11T18:40:30.575Z,76.40
2018-05-11T18:45:33.821Z,77.20
2018-05-11T18:50:37.073Z,78.10
2018-05-11T18:55:40.323Z,78.00
2018-05-11T19:00:43.972Z,78.10
2018-05-11T19:05:47.206Z,78.00
2018-05-11T19:10:50.445Z,78.40
2018-05-11T19:15:54.826Z,79.90
2018-05-11T19:20:58.068Z,79.90
2018-05-11T19:26:01.700Z,80.60
2018-05-11T19:31:04.960Z,80.60
2018-05-11T19:36:08.206Z,82.00
2018-05-11T19:41:11.606Z,82.60
2018-05-11T19:46:15.015Z,83.30
2018-05-11T19:51:18.639Z,85.10
2018-05-11T19:56:22.251Z,85.70
2018-05-11T20:01:25.962Z,85.90
2018-05-11T20:06:29.244Z,85.90
2018-05-11T20:11:32.574Z,86.00
2018-05-11T20:16:36.377Z,86.00
2018-05-11T20:21:39.597Z,86.30
2018-05-11T20:26:43.245Z,86.80
2018-05-11T20:31:46.509Z,86.80
2018-05-11T20:36:49.735Z,87.20
2018-05-11T20:41:53.007Z,87.00
2018-05-11T20:46:56.286Z,86.50
2018-05-11T20:51:59.500Z,86.10
2018-05-11T20:57:03.889Z,86.50
2018-05-11T21:02:07.561Z,87.00
2018-05-11T21:07:10.821Z,87.00
2018-05-11T21:12:14.438Z,87.40
2018-05-11T21:17:18.165Z,88.50
2018-05-11T21:22:21.419Z,88.50
2018-05-11T21:27:24.853Z,90.80
2018-05-11T21:32:28.493Z,91.80
2018-05-11T21:37:32.185Z,91.60
2018-05-11T21:42:35.507Z,91.60
2018-05-11T21:47:39.328Z,91.10
2018-05-11T21:52:43.164Z,91.30
2018-05-11T21:57:46.923Z,91.30
2018-05-11T22:02:50.420Z,91.30
2018-05-11T22:07:56.006Z,91.50
2018-05-11T22:12:59.291Z,91.30
2018-05-11T22:18:02.689Z,91.30
2018-05-11T22:23:05.973Z,91.60
2018-05-11T22:28:09.201Z,92.00
2018-05-11T22:33:12.569Z,92.50
2018-05-11T22:38:16.517Z,92.90
2018-05-11T22:43:19.765Z,93.30
2018-05-11T22:48:24.327Z,93.30
2018-05-11T22:53:28.106Z,92.80
2018-05-11T22:58:31.384Z,92.20
2018-05-11T23:03:34.853Z,93.50
2018-05-11T23:08:38.075Z,95.00
2018-05-11T23:13:41.718Z,95.00
2018-05-11T23:18:45.624Z,95.00
2018-05-11T23:23:49.431Z,93.70
2018-05-11T23:28:53.050Z,94.80
2018-05-11T23:33:56.684Z,95.40
2018-05-11T23:38:59.964Z,95.40
2018-05-11T23:44:04.310Z,95.20
2018-05-11T23:49:08.645Z,96.20
2018-05-11T23:54:12.450Z,97.10
2018-05-11T23:59:16.164Z,96.60
